• Join FlightAware (Why Join?)
  • Login
  • US Flag GB Flag 
04:00 EST


 

Airport Tracker/Info


-or-


 

Live Flight TrackerFlight Track Log ✈ N6600L ✈ 21-Apr-2013 ✈ KBED - KCON

Flight Track Log - Related Links

Times and Time Zones

All times are in EDT time to prevent confusion due to time zone crossing. See the N6600L flight status page for this flight to view local times or setup timezone preferences in your user account.

Time Position Orientation Groundspeed Altitude Reporting Facility
EDT Latitude Longitude Course Direction KTS MPH feet Rate Location/Type
12:26 42.6772 -72.1519 301° West 147 169 4,400  Level Boston Center
12:27 42.6772 -72.2114 270° West 142 163 4,000 -400 Descending Boston Center
12:28 42.6794 -72.2650 273° West 142 163 3,600 -250 Descending Boston Center
12:29 42.7108 -72.2847 335° Northwest 116 133 3,500 -50 Descending Boston Center
12:30 42.7422 -72.2847 360° North 102 117 3,500 500 Level Boston Center
12:31 42.7733 -72.2817 North 107 123 4,500 -650 Climbing Boston Center
12:32 42.8968 -72.2670 301° West  Level Estimated
12:32 42.8067 -72.2789 North 107 123 2,200  Level Boston Center
12:33 42.8297 -72.2758 North 99 114 1,800 -350 Descending Boston Center
12:34 42.8589 -72.2758 360° North 93 107 1,500 1,350 Descending Boston Center
12:35 42.8797 -72.2758 360° North 93 107 4,500 1,500 Climbing Boston Center
12:36 42.8797 -72.2728 90° East 93 107 4,500 -200 Level Boston Center
12:37 42.9169 -72.2275 42° Northeast 135 155 4,100 -100 Descending Boston Center
12:38 42.9233 -72.1878 78° East 125 144 4,300 500 Climbing Boston Center
12:39 42.9253 -72.1311 87° East 131 151 5,100 500 Climbing Boston Center
12:40 42.9250 -72.0886 90° East 123 142 5,300 250 Climbing Boston Center
12:41 42.9417 -72.0344 67° East 128 147 5,600 150 Climbing Boston Center
12:42 42.9642 -71.9889 56° Northeast 144 166 5,600 50 Level Boston Center
12:43 42.9892 -71.9378 56° Northeast 149 171 5,700  Climbing Boston Center
12:44 43.0033 -71.8894 68° East 149 171 5,600 -50 Descending Boston Center
12:45 42.9844 -71.8242 112° Southeast 151 174 5,600  Level Boston Center
12:46 42.9653 -71.7733 117° Southeast 166 191 5,600 -350 Level Boston Center
12:47 42.9669 -71.7025 88° East 166 191 4,900 -400 Descending Boston Center
12:48 42.9708 -71.6456 85° East 166 191 4,800 -300 Descending Boston Center
12:49 42.9744 -71.5803 86° East 160 184 4,300 -450 Descending Boston Center
12:50 42.9844 -71.5233 76° East 160 184 3,900 -300 Descending Boston Center
12:51 42.9964 -71.4608 75° East 160 184 3,700 -100 Descending Boston Center
12:52 43.0128 -71.4150 64° Northeast 149 171 3,700 -400 Level Boston Center
12:53 43.0503 -71.4089 North 122 140 2,900 -475 Descending Boston Center
12:56 43.1333 -71.4500 340° North 126 145 2,100 -475 Descending KA90
12:57 43.1500 -71.4667 324° Northwest 108 124 1,300 -600 Descending KA90
12:58 43.1833 -71.4833 340° North 94 108 900 50 Descending KA90
12:59 43.2000 -71.5000 324° Northwest 103 119 1,400 800 Climbing KA90
13:00 43.2167 -71.5333 304° West 112 129 2,500 1,200 Climbing KA90
13:01 43.1833 -71.5333 180° South 128 147 3,800 1,150 Climbing KA90
13:02 43.1500 -71.5333 180° South 126 145 4,800 632 Climbing KA90
13:02 43.1167 -71.5000 144° Southeast 199 229 5,000 53 Climbing KA90
13:03 43.0833 -71.4667 144° Southeast 165 190 4,900 -190 Descending KA90
13:05 43.0667 -71.4000 109° East 162 186 4,600 -200 Descending KA90
13:05 43.0333 -71.3833 160° South 144 166 4,500 -53 Descending KA90
13:06 42.9833 -71.3667 166° South 142 163 4,500  Level KA90
13:07 42.9500 -71.3500 160° South 147 169 4,500 -200 Level KA90
13:08 42.9167 -71.3333 160° South 154 177 4,100 -476 Descending KA90
13:10 42.8667 -71.3000 154° Southeast 159 183 3,500 -476 Descending KA90
13:11 42.8333 -71.2833 160° South 147 169 3,100 -368 Descending KA90
13:11 42.8000 -71.2667 160° South 148 170 2,800 -368 Descending KA90
13:12 42.7500 -71.2833 194° South 149 171 2,400 -381 Descending KA90
13:14 42.7167 -71.3167 216° Southwest 149 171 2,000 -190 Descending KA90
13:15 42.7167 -71.3667 270° West 129 148 2,000 50 Level KA90
13:16 42.7333 -71.4167 294° West 130 150 2,100  Climbing KA90
13:16 42.7500 -71.4500 304° West 135 155 2,000 -526 Descending KA90
13:17 42.7667 -71.4833 304° West 101 116 1,100 -900 Descending KA90
13:19 42.8000 -71.4848 358° North  Level Estimated
13:26 43.0157 -71.4941 358° North  Level Estimated
13:27 43.0465 -71.4955 358° North  Level Estimated